Time;durP1;ratioP1;P1;durP2;ratioP2;P2;SDS_P1;SDS_P2;PMS_P1;PMS_P2;Temp;Humidity;BMP_temperature;BMP_pressure;BME280_temperature;BME280_humidity;BME280_pressure;Samples;Min_cycle;Max_cycle;Signal;HPM_P1;HPM_P2
2023/09/03 00:00:52;;;;;;;32.35;15.00;;;15.90;99.90;;;;;;5037966;28;20127;-54
2023/09/03 00:03:17;;;;;;;29.67;13.70;;;15.90;99.90;;;;;;5038021;28;20034;-55
2023/09/03 00:05:56;;;;;;;29.60;15.18;;;15.80;99.90;;;;;;5037150;28;20163;-56
2023/09/03 00:08:23;;;;;;;36.45;16.10;;;15.80;99.90;;;;;;5037110;28;20170;-51
2023/09/03 00:10:52;;;;;;;36.50;15.77;;;15.70;99.90;;;;;;5037206;28;20032;-54
2023/09/03 00:13:18;;;;;;;35.28;15.65;;;15.70;99.90;;;;;;5037617;28;20068;-54
2023/09/03 00:15:44;;;;;;;34.92;15.50;;;15.70;99.90;;;;;;5037737;28;20579;-51
2023/09/03 00:18:11;;;;;;;40.20;16.42;;;15.70;99.90;;;;;;5037531;28;20030;-55
2023/09/03 00:20:40;;;;;;;36.67;17.65;;;15.70;99.90;;;;;;5037123;28;20034;-50
2023/09/03 00:23:06;;;;;;;34.60;16.90;;;15.70;99.90;;;;;;5037013;28;20033;-54
2023/09/03 00:25:36;;;;;;;37.15;16.60;;;15.70;99.90;;;;;;5037103;28;20026;-55
2023/09/03 00:28:02;;;;;;;40.15;15.73;;;15.70;99.90;;;;;;5019963;28;20083;-52
2023/09/03 00:30:28;;;;;;;37.50;16.42;;;15.70;99.90;;;;;;5036861;28;20033;-56
2023/09/03 00:32:53;;;;;;;36.22;16.23;;;15.70;99.90;;;;;;5035772;28;20492;-54
2023/09/03 00:35:20;;;;;;;35.30;15.73;;;15.70;99.90;;;;;;5036046;28;20048;-54
2023/09/03 00:37:46;;;;;;;35.33;15.88;;;15.70;99.90;;;;;;5035529;28;20034;-56
2023/09/03 00:40:11;;;;;;;35.08;15.63;;;15.70;99.90;;;;;;5019563;28;20026;-53
2023/09/03 00:42:37;;;;;;;39.67;17.13;;;15.70;99.90;;;;;;5019087;28;20035;-54
2023/09/03 00:45:03;;;;;;;35.60;15.90;;;15.70;99.90;;;;;;5019430;28;20112;-55
2023/09/03 00:47:30;;;;;;;36.75;16.88;;;15.60;99.90;;;;;;5019132;28;20070;-56
2023/09/03 00:49:56;;;;;;;33.97;15.80;;;15.60;99.90;;;;;;5036744;28;20065;-53
2023/09/03 00:52:24;;;;;;;37.03;16.33;;;15.60;99.90;;;;;;5018888;28;20193;-55
2023/09/03 00:54:50;;;;;;;42.58;17.98;;;15.60;99.90;;;;;;5036885;28;20044;-55
2023/09/03 00:57:16;;;;;;;35.30;15.93;;;15.50;99.90;;;;;;5019193;28;20033;-56
2023/09/03 00:59:44;;;;;;;35.22;15.52;;;15.50;99.90;;;;;;5018654;28;20044;-53
2023/09/03 01:02:13;;;;;;;39.17;16.92;;;15.40;99.90;;;;;;5035109;28;20041;-55
2023/09/03 01:04:39;;;;;;;43.80;17.27;;;15.40;99.90;;;;;;5035591;28;20052;-51
2023/09/03 01:07:06;;;;;;;36.88;17.05;;;15.40;99.90;;;;;;5037155;28;20123;-52
2023/09/03 01:09:32;;;;;;;36.67;14.90;;;15.40;99.90;;;;;;5035980;28;20087;-53
2023/09/03 01:12:07;;;;;;;38.22;16.50;;;15.40;99.90;;;;;;5018867;28;20033;-53
2023/09/03 01:14:48;;;;;;;37.08;16.88;;;15.40;99.90;;;;;;5019523;28;20061;-54
2023/09/03 01:17:34;;;;;;;36.10;15.27;;;15.40;99.90;;;;;;5018444;28;20060;-54
2023/09/03 01:20:18;;;;;;;34.25;15.55;;;15.40;99.90;;;;;;5019050;28;20033;-51
2023/09/03 01:23:21;;;;;;;36.97;15.32;;;15.30;99.90;;;;;;5035541;28;20033;-53
2023/09/03 01:26:12;;;;;;;36.65;16.20;;;15.40;99.90;;;;;;5019272;28;20028;-55
2023/09/03 01:28:39;;;;;;;34.78;14.85;;;15.40;99.90;;;;;;5035742;28;20037;-53
2023/09/03 01:31:14;;;;;;;33.30;14.63;;;15.40;99.90;;;;;;5018226;28;20057;-52
2023/09/03 01:33:42;;;;;;;34.20;15.25;;;15.40;99.90;;;;;;5036026;28;20120;-54
2023/09/03 01:36:09;;;;;;;36.88;16.00;;;15.40;99.90;;;;;;5035222;28;20099;-55
2023/09/03 01:38:36;;;;;;;37.33;16.00;;;15.40;99.90;;;;;;5018508;28;20033;-55
2023/09/03 01:41:02;;;;;;;37.47;14.98;;;15.40;99.90;;;;;;5038201;28;20028;-54
2023/09/03 01:43:29;;;;;;;37.60;15.57;;;15.40;99.90;;;;;;5037608;28;20029;-56
2023/09/03 01:45:57;;;;;;;33.83;15.18;;;15.40;99.90;;;;;;5035342;28;20037;-54
2023/09/03 01:48:26;;;;;;;37.13;15.93;;;15.30;99.90;;;;;;5042439;28;20433;-51
2023/09/03 01:51:44;;;;;;;39.30;15.38;;;15.30;99.90;;;;;;5027151;28;20061;-51
2023/09/03 01:54:20;;;;;;;37.30;15.95;;;15.30;99.90;;;;;;5015923;28;20048;-51
2023/09/03 01:56:57;;;;;;;33.28;15.90;;;15.20;99.90;;;;;;5037331;28;20041;-54
2023/09/03 01:59:45;;;;;;;35.15;15.55;;;15.20;99.90;;;;;;5034067;28;20120;-51
2023/09/03 02:02:12;;;;;;;35.65;15.13;;;15.20;99.90;;;;;;5020043;28;20056;-52
2023/09/03 02:04:38;;;;;;;37.03;14.32;;;15.20;99.90;;;;;;5037687;28;20025;-50
2023/09/03 02:07:04;;;;;;;33.33;14.25;;;15.20;99.90;;;;;;5019514;28;20025;-51
2023/09/03 02:09:30;;;;;;;29.45;13.55;;;15.20;99.90;;;;;;5037947;28;20096;-53
2023/09/03 02:11:56;;;;;;;34.60;14.88;;;15.20;99.90;;;;;;5037224;28;20063;-51
2023/09/03 02:14:22;;;;;;;33.88;14.52;;;15.20;99.90;;;;;;5019506;28;20029;-50
2023/09/03 02:16:47;;;;;;;33.33;14.82;;;15.20;99.90;;;;;;5037233;28;20154;-52
2023/09/03 02:19:13;;;;;;;33.67;14.50;;;15.20;99.90;;;;;;5019297;28;20037;-51
2023/09/03 02:21:39;;;;;;;30.67;13.80;;;15.20;99.90;;;;;;5036053;28;20421;-51
2023/09/03 02:24:04;;;;;;;34.90;14.90;;;15.20;99.90;;;;;;5003788;28;20033;-55
2023/09/03 02:26:30;;;;;;;32.17;14.65;;;15.10;99.90;;;;;;5037420;28;20081;-54
2023/09/03 02:28:56;;;;;;;23.40;12.23;;;15.10;99.90;;;;;;5040214;28;20040;-51
2023/09/03 02:31:21;;;;;;;32.40;14.63;;;15.10;99.90;;;;;;5039247;28;20040;-51
2023/09/03 02:33:47;;;;;;;29.55;14.38;;;15.10;99.90;;;;;;5040387;28;20048;-52
2023/09/03 02:36:13;;;;;;;33.92;14.48;;;15.00;99.90;;;;;;5006666;28;20033;-51
2023/09/03 02:38:40;;;;;;;33.03;14.40;;;15.00;99.90;;;;;;5039855;28;20081;-52
2023/09/03 02:41:05;;;;;;;30.25;14.55;;;14.90;99.90;;;;;;5039415;28;20059;-51
2023/09/03 02:43:31;;;;;;;32.45;14.75;;;14.90;99.90;;;;;;5040832;28;20053;-52
2023/09/03 02:45:58;;;;;;;31.17;14.77;;;14.90;99.90;;;;;;5039661;28;20026;-53
2023/09/03 02:48:23;;;;;;;32.72;14.25;;;14.90;99.90;;;;;;5039676;28;20029;-51
2023/09/03 02:50:49;;;;;;;37.10;14.95;;;14.80;99.90;;;;;;5039267;28;20033;-50
2023/09/03 02:53:15;;;;;;;28.65;13.48;;;14.80;99.90;;;;;;5039450;28;20096;-51
2023/09/03 02:55:40;;;;;;;33.88;15.32;;;14.80;99.90;;;;;;5039755;28;20033;-52
2023/09/03 02:58:06;;;;;;;36.35;15.93;;;14.80;99.90;;;;;;5022649;28;20143;-54
2023/09/03 03:00:33;;;;;;;32.58;14.90;;;14.80;99.90;;;;;;5038999;28;20037;-54
2023/09/03 03:02:59;;;;;;;33.92;13.98;;;14.80;99.90;;;;;;5022085;28;20375;-53
2023/09/03 03:05:25;;;;;;;35.88;14.30;;;14.80;99.90;;;;;;5022679;28;20032;-52
2023/09/03 03:07:50;;;;;;;37.28;13.85;;;14.80;99.90;;;;;;5038561;28;20496;-52
2023/09/03 03:10:16;;;;;;;34.70;15.68;;;14.90;99.90;;;;;;5006057;28;20033;-52
2023/09/03 03:12:44;;;;;;;33.25;14.63;;;14.80;99.90;;;;;;5005832;28;20112;-52
2023/09/03 03:15:10;;;;;;;33.92;14.73;;;14.80;99.90;;;;;;5038817;28;20260;-55
2023/09/03 03:17:37;;;;;;;31.05;14.35;;;14.80;99.90;;;;;;5038155;28;20033;-52
2023/09/03 03:20:03;;;;;;;33.45;14.18;;;14.80;99.90;;;;;;5040086;28;20091;-53
2023/09/03 03:22:28;;;;;;;31.65;14.15;;;14.80;99.90;;;;;;5039510;28;20064;-52
2023/09/03 03:24:54;;;;;;;32.25;14.23;;;14.80;99.90;;;;;;4989561;28;20037;-52
2023/09/03 03:27:20;;;;;;;30.77;14.15;;;14.80;99.90;;;;;;5038289;28;20122;-54
2023/09/03 03:29:45;;;;;;;31.42;13.95;;;14.80;99.90;;;;;;5039349;28;20032;-54
2023/09/03 03:32:12;;;;;;;31.25;14.90;;;14.80;99.90;;;;;;5037842;28;20074;-54
2023/09/03 03:34:43;;;;;;;32.85;14.60;;;14.80;99.90;;;;;;5038716;28;20031;-56
2023/09/03 03:37:11;;;;;;;32.60;14.90;;;14.80;99.90;;;;;;5021216;28;20397;-52
2023/09/03 03:39:37;;;;;;;35.15;14.02;;;14.70;99.90;;;;;;5037130;28;20102;-53
2023/09/03 03:42:04;;;;;;;34.08;14.13;;;14.70;99.90;;;;;;5037251;28;20116;-53
2023/09/03 03:44:31;;;;;;;32.17;15.13;;;14.60;99.90;;;;;;5020953;28;20096;-56
2023/09/03 03:46:56;;;;;;;33.95;14.63;;;14.60;99.90;;;;;;5037427;28;20026;-52
2023/09/03 03:49:22;;;;;;;35.28;15.30;;;14.60;99.90;;;;;;5039129;28;20032;-55
2023/09/03 03:51:48;;;;;;;29.73;13.65;;;14.60;99.90;;;;;;5037643;28;20034;-53
2023/09/03 03:54:14;;;;;;;32.50;14.48;;;14.50;99.90;;;;;;5037524;28;20033;-52
2023/09/03 03:56:40;;;;;;;32.15;15.13;;;14.50;99.90;;;;;;5037540;28;20029;-54
2023/09/03 03:59:06;;;;;;;31.42;14.05;;;14.50;99.90;;;;;;5019726;28;20044;-52
2023/09/03 04:01:31;;;;;;;31.00;14.07;;;14.50;99.90;;;;;;5037053;28;20061;-54
2023/09/03 04:03:57;;;;;;;33.63;15.20;;;14.50;99.90;;;;;;5036788;28;20068;-53
2023/09/03 04:06:23;;;;;;;33.67;15.70;;;14.50;99.90;;;;;;5036772;28;20277;-53
2023/09/03 04:08:48;;;;;;;27.02;13.55;;;14.50;99.90;;;;;;5038270;28;20029;-54
2023/09/03 04:11:17;;;;;;;32.55;14.80;;;14.40;99.90;;;;;;5036488;28;20033;-54
2023/09/03 04:13:42;;;;;;;33.00;14.13;;;14.40;99.90;;;;;;5038398;28;20076;-53
2023/09/03 04:16:16;;;;;;;30.88;14.48;;;14.40;99.90;;;;;;5036953;28;20467;-53
2023/09/03 04:18:45;;;;;;;27.75;13.02;;;14.40;99.90;;;;;;5020166;28;20056;-54
2023/09/03 04:21:11;;;;;;;34.30;14.95;;;14.40;99.90;;;;;;5036548;28;20629;-51
2023/09/03 04:23:37;;;;;;;36.42;15.30;;;14.40;99.90;;;;;;5019090;28;20025;-51
2023/09/03 04:26:04;;;;;;;33.13;14.85;;;14.40;99.90;;;;;;5035872;28;20064;-52
2023/09/03 04:28:32;;;;;;;32.97;13.95;;;14.30;99.90;;;;;;5036408;28;20040;-51
2023/09/03 04:31:00;;;;;;;29.92;14.40;;;14.30;99.90;;;;;;5035848;28;20037;-54
2023/09/03 04:33:29;;;;;;;33.83;14.25;;;14.30;99.90;;;;;;5035997;28;20091;-54
2023/09/03 04:36:00;;;;;;;30.45;14.85;;;14.20;99.90;;;;;;5036611;28;20021;-52
2023/09/03 04:38:29;;;;;;;30.40;13.70;;;14.10;99.90;;;;;;5036285;28;20441;-56
2023/09/03 04:41:03;;;;;;;34.47;14.18;;;14.10;99.90;;;;;;5036826;28;20030;-55
2023/09/03 04:43:29;;;;;;;28.50;13.23;;;14.10;99.90;;;;;;5019288;28;20386;-55
2023/09/03 04:45:55;;;;;;;29.65;13.80;;;14.10;99.90;;;;;;5035797;28;20125;-52
2023/09/03 04:48:22;;;;;;;30.77;13.95;;;14.00;99.90;;;;;;5035978;28;20022;-55
2023/09/03 04:50:47;;;;;;;35.40;14.30;;;14.10;99.90;;;;;;5019212;28;20029;-54
2023/09/03 04:53:13;;;;;;;32.45;13.50;;;14.10;99.90;;;;;;5035406;28;20060;-51
2023/09/03 04:55:40;;;;;;;36.58;14.18;;;14.10;99.90;;;;;;5035791;28;20030;-52
2023/09/03 04:58:07;;;;;;;27.08;12.35;;;14.00;99.90;;;;;;5035790;28;20041;-54
2023/09/03 05:00:33;;;;;;;29.20;13.85;;;14.00;99.90;;;;;;5036467;28;20124;-52
2023/09/03 05:03:04;;;;;;;;;;;14.00;99.90;;;;;;5019757;28;20057;-52
2023/09/03 05:05:30;;;;;;;31.27;12.63;;;14.00;99.90;;;;;;5019982;28;20305;-52
2023/09/03 05:07:55;;;;;;;31.92;13.88;;;14.00;99.90;;;;;;5035845;28;20026;-52
2023/09/03 05:10:24;;;;;;;34.92;14.55;;;14.00;99.90;;;;;;5018806;28;20033;-51
2023/09/03 05:12:50;;;;;;;28.23;13.00;;;14.00;99.90;;;;;;5035334;28;20039;-55
2023/09/03 05:15:17;;;;;;;28.88;13.10;;;13.90;99.90;;;;;;5035735;28;20029;-53
2023/09/03 05:17:43;;;;;;;29.77;13.35;;;14.00;99.90;;;;;;5003092;28;20037;-52
2023/09/03 05:20:09;;;;;;;28.85;12.95;;;14.00;99.90;;;;;;5018407;28;20521;-53
2023/09/03 05:22:34;;;;;;;27.05;12.82;;;14.00;99.90;;;;;;5018666;28;20021;-54
2023/09/03 05:25:00;;;;;;;30.02;13.52;;;14.10;99.90;;;;;;5036514;28;20554;-50
2023/09/03 05:27:30;;;;;;;32.88;14.35;;;14.10;99.90;;;;;;5036031;28;20033;-51
2023/09/03 05:29:56;;;;;;;35.78;13.95;;;14.10;99.90;;;;;;5019298;28;20040;-51
2023/09/03 05:32:23;;;;;;;33.25;13.95;;;14.10;99.90;;;;;;5002396;28;20041;-52
2023/09/03 05:34:52;;;;;;;35.17;13.05;;;14.10;99.90;;;;;;5034652;28;20427;-52
2023/09/03 05:37:18;;;;;;;27.65;13.40;;;14.00;99.90;;;;;;5038031;28;20375;-54
2023/09/03 05:39:43;;;;;;;26.95;13.05;;;14.00;99.90;;;;;;5035928;28;20044;-54
2023/09/03 05:42:09;;;;;;;29.60;13.48;;;14.00;99.90;;;;;;5018932;28;20033;-55
2023/09/03 05:44:35;;;;;;;27.67;12.90;;;14.10;99.90;;;;;;5036589;28;20033;-52
2023/09/03 05:47:01;;;;;;;30.45;13.80;;;14.10;99.90;;;;;;5035144;28;20041;-54
2023/09/03 05:49:28;;;;;;;30.45;13.23;;;14.10;99.90;;;;;;5034579;28;20029;-55
2023/09/03 05:51:53;;;;;;;26.55;13.73;;;14.20;99.90;;;;;;5034840;28;20402;-55
2023/09/03 05:54:19;;;;;;;29.75;13.00;;;14.20;99.90;;;;;;5034634;28;20030;-55
2023/09/03 05:56:45;;;;;;;29.25;12.63;;;14.30;99.90;;;;;;5001787;28;20037;-54
2023/09/03 05:59:11;;;;;;;26.67;12.07;;;14.30;99.90;;;;;;5034588;28;20091;-56
2023/09/03 06:01:38;;;;;;;32.40;13.27;;;14.40;99.90;;;;;;5018258;28;20096;-56
2023/09/03 06:04:09;;;;;;;27.13;13.32;;;14.40;99.90;;;;;;5034951;28;20060;-55
2023/09/03 06:06:39;;;;;;;28.20;13.25;;;14.40;99.90;;;;;;5034569;28;20051;-50
2023/09/03 06:09:06;;;;;;;21.75;10.65;;;14.50;99.90;;;;;;5035549;28;20027;-55
2023/09/03 06:11:35;;;;;;;24.50;12.43;;;14.70;99.90;;;;;;5036012;28;20107;-55
2023/09/03 06:14:01;;;;;;;24.58;12.55;;;14.80;99.90;;;;;;5018222;28;20021;-53
2023/09/03 06:16:27;;;;;;;29.15;14.35;;;14.90;99.90;;;;;;5036391;28;20107;-56
2023/09/03 06:18:53;;;;;;;27.83;13.13;;;15.00;99.90;;;;;;5034149;28;20037;-56
2023/09/03 06:21:19;;;;;;;28.73;13.38;;;15.10;99.90;;;;;;5035472;28;20084;-52
2023/09/03 06:23:44;;;;;;;24.88;12.82;;;15.20;99.90;;;;;;5035611;28;20030;-52
2023/09/03 06:26:10;;;;;;;28.95;13.68;;;15.30;99.90;;;;;;5036025;28;20025;-54
2023/09/03 06:28:36;;;;;;;29.30;12.65;;;15.40;99.90;;;;;;5036382;28;20026;-55
2023/09/03 06:31:02;;;;;;;29.50;14.25;;;15.50;99.90;;;;;;5034404;28;20486;-55
2023/09/03 06:33:27;;;;;;;27.02;13.27;;;15.60;99.90;;;;;;5035089;28;20029;-54
2023/09/03 06:35:53;;;;;;;26.52;12.90;;;15.70;99.90;;;;;;5036105;28;20061;-55
2023/09/03 06:38:19;;;;;;;29.67;15.65;;;15.90;99.90;;;;;;5035420;28;20029;-54
2023/09/03 06:40:44;;;;;;;29.88;13.85;;;16.00;99.90;;;;;;5034761;28;20021;-51
2023/09/03 06:43:10;;;;;;;32.63;15.88;;;16.00;99.90;;;;;;5034713;28;20025;-53
2023/09/03 06:45:36;;;;;;;30.48;14.88;;;16.10;99.90;;;;;;5033772;28;20030;-55
2023/09/03 06:48:01;;;;;;;33.25;15.80;;;16.10;99.90;;;;;;5035465;28;20065;-55
2023/09/03 06:50:27;;;;;;;30.88;15.13;;;16.10;99.90;;;;;;5034384;28;20041;-55
2023/09/03 06:52:53;;;;;;;33.58;15.93;;;16.20;99.90;;;;;;5017376;28;20053;-55
2023/09/03 06:55:18;;;;;;;31.23;15.75;;;16.30;99.90;;;;;;5035527;28;20492;-50
2023/09/03 06:57:44;;;;;;;32.17;15.75;;;16.30;99.90;;;;;;5035386;28;20363;-51
2023/09/03 07:00:10;;;;;;;33.88;16.58;;;16.40;99.90;;;;;;5034803;28;20030;-55
2023/09/03 07:02:36;;;;;;;32.55;15.75;;;16.50;99.90;;;;;;5034704;28;20022;-55
2023/09/03 07:05:02;;;;;;;36.70;16.27;;;16.50;99.90;;;;;;5035412;28;20055;-54
2023/09/03 07:07:28;;;;;;;32.13;15.60;;;16.60;99.90;;;;;;5034937;28;20037;-54
2023/09/03 07:09:54;;;;;;;30.45;15.82;;;16.70;99.90;;;;;;5034873;28;20103;-54
2023/09/03 07:12:20;;;;;;;32.92;14.93;;;16.70;99.90;;;;;;5034761;28;20425;-50
2023/09/03 07:14:46;;;;;;;34.15;14.93;;;16.80;99.90;;;;;;5035987;28;20029;-55
2023/09/03 07:17:12;;;;;;;30.02;15.48;;;16.90;99.90;;;;;;5038356;28;20036;-52
2023/09/03 07:19:38;;;;;;;28.77;15.60;;;16.90;99.90;;;;;;5038950;28;20033;-55
2023/09/03 07:22:04;;;;;;;28.52;15.07;;;17.00;99.90;;;;;;5038594;28;20029;-55
2023/09/03 07:24:29;;;;;;;30.30;16.25;;;17.00;99.90;;;;;;5038685;28;20029;-55
2023/09/03 07:26:55;;;;;;;29.92;14.82;;;17.10;99.90;;;;;;5038494;28;20025;-55
2023/09/03 07:29:21;;;;;;;30.17;14.45;;;17.10;99.90;;;;;;5038397;28;20030;-52
2023/09/03 07:31:46;;;;;;;30.88;14.85;;;17.20;99.90;;;;;;5038419;28;20040;-54
2023/09/03 07:34:13;;;;;;;32.97;15.70;;;17.20;99.90;;;;;;5038561;28;20057;-53
2023/09/03 07:36:39;;;;;;;25.95;13.45;;;17.30;99.90;;;;;;5039201;28;20444;-55
2023/09/03 07:39:08;;;;;;;31.40;14.90;;;17.30;99.90;;;;;;5038143;28;20043;-54
2023/09/03 07:41:34;;;;;;;29.77;15.40;;;17.50;99.90;;;;;;5038044;28;20167;-53
2023/09/03 07:44:00;;;;;;;28.58;14.80;;;17.50;99.90;;;;;;5038726;28;20458;-55
2023/09/03 07:46:26;;;;;;;27.63;13.77;;;17.60;99.90;;;;;;5038368;28;20033;-51
2023/09/03 07:48:52;;;;;;;29.02;14.85;;;17.80;99.90;;;;;;5038465;28;20061;-54
2023/09/03 07:51:19;;;;;;;26.42;14.20;;;17.90;99.90;;;;;;5038519;28;20052;-55
2023/09/03 07:53:48;;;;;;;27.70;14.45;;;17.90;99.90;;;;;;5037352;28;20036;-54
2023/09/03 07:56:17;;;;;;;27.85;14.35;;;18.00;99.90;;;;;;5037390;28;20037;-55
2023/09/03 07:58:44;;;;;;;25.27;13.27;;;18.10;99.90;;;;;;5037077;28;20033;-54
2023/09/03 08:01:11;;;;;;;25.98;13.85;;;18.20;99.90;;;;;;5037592;28;20101;-51
2023/09/03 08:03:38;;;;;;;25.60;13.93;;;18.30;99.90;;;;;;5037506;28;20132;-52
2023/09/03 08:06:05;;;;;;;27.17;13.98;;;18.40;99.90;;;;;;5036011;28;20026;-53
2023/09/03 08:08:31;;;;;;;23.20;13.27;;;18.40;99.90;;;;;;5036835;28;20067;-55
2023/09/03 08:10:57;;;;;;;24.25;13.43;;;18.50;99.90;;;;;;5038001;28;20032;-56
2023/09/03 08:13:23;;;;;;;26.23;13.65;;;18.60;99.90;;;;;;5037204;28;20033;-51
2023/09/03 08:15:48;;;;;;;24.00;12.55;;;18.60;99.90;;;;;;5037444;28;20057;-55
2023/09/03 08:18:15;;;;;;;26.38;14.93;;;18.70;99.90;;;;;;5037488;28;20033;-54
2023/09/03 08:20:41;;;;;;;25.80;14.10;;;18.80;99.90;;;;;;5037491;28;20029;-52
2023/09/03 08:23:12;;;;;;;24.20;14.20;;;18.80;99.90;;;;;;5036901;28;20056;-50
2023/09/03 08:25:39;;;;;;;25.02;13.35;;;18.90;99.90;;;;;;5037116;28;20032;-51
2023/09/03 08:28:05;;;;;;;24.80;14.15;;;18.90;99.90;;;;;;5036891;28;20028;-55
2023/09/03 08:30:30;;;;;;;25.65;13.38;;;19.00;99.90;;;;;;5037404;28;20076;-54
2023/09/03 08:32:56;;;;;;;24.38;12.85;;;19.00;99.90;;;;;;5002825;28;20041;-55
2023/09/03 08:35:22;;;;;;;21.52;12.20;;;19.00;99.90;;;;;;5036875;28;20025;-54
2023/09/03 08:37:47;;;;;;;24.70;13.00;;;19.20;99.90;;;;;;5037140;28;20041;-56
2023/09/03 08:40:13;;;;;;;22.98;13.07;;;19.30;99.90;;;;;;5037385;28;20040;-55
2023/09/03 08:42:42;;;;;;;27.45;14.27;;;19.40;99.90;;;;;;5036636;28;20486;-55
2023/09/03 08:45:11;;;;;;;25.08;13.20;;;19.50;99.90;;;;;;5037453;28;20048;-54
2023/09/03 08:47:41;;;;;;;23.42;12.88;;;19.60;99.90;;;;;;5037092;28;20057;-55
2023/09/03 08:50:11;;;;;;;20.02;11.57;;;19.60;99.90;;;;;;5036410;28;20132;-55
2023/09/03 08:52:39;;;;;;;19.58;10.93;;;19.70;99.90;;;;;;5036509;28;20168;-52
2023/09/03 08:55:05;;;;;;;19.67;12.32;;;19.80;99.90;;;;;;5019486;28;20197;-55
2023/09/03 08:57:34;;;;;;;22.60;12.57;;;19.90;99.90;;;;;;5036932;28;20030;-51
2023/09/03 09:00:06;;;;;;;15.70;9.93;;;19.80;99.90;;;;;;5035350;28;20182;-54
2023/09/03 09:02:35;;;;;;;23.38;12.20;;;19.90;99.90;;;;;;5036212;28;20030;-55
2023/09/03 09:05:03;;;;;;;19.77;11.70;;;20.00;99.90;;;;;;5036579;28;20479;-54
2023/09/03 09:07:28;;;;;;;15.18;8.93;;;20.00;99.90;;;;;;5036676;28;20029;-55
2023/09/03 09:09:58;;;;;;;17.55;11.43;;;20.20;99.90;;;;;;5019323;28;20102;-55
2023/09/03 09:12:39;;;;;;;20.83;10.90;;;20.30;99.90;;;;;;5036695;28;20045;-52
2023/09/03 09:15:05;;;;;;;17.85;10.90;;;20.30;99.90;;;;;;5036873;28;20390;-52
2023/09/03 09:17:42;;;;;;;21.85;12.38;;;20.40;99.90;;;;;;5036735;28;20025;-53
2023/09/03 09:20:09;;;;;;;17.75;10.65;;;20.40;99.90;;;;;;5018544;28;20116;-54
2023/09/03 09:22:42;;;;;;;15.10;8.35;;;20.60;99.90;;;;;;5036511;28;20497;-54
2023/09/03 09:25:10;;;;;;;16.85;10.18;;;20.90;99.90;;;;;;5036733;28;20029;-55
2023/09/03 09:27:37;;;;;;;25.00;13.50;;;21.00;99.90;;;;;;5036163;28;20026;-54
2023/09/03 09:30:18;;;;;;;14.57;8.38;;;21.00;99.90;;;;;;5035835;28;20138;-54
2023/09/03 09:32:45;;;;;;;15.23;9.77;;;21.10;99.90;;;;;;5035976;28;20456;-54
2023/09/03 09:35:21;;;;;;;15.70;9.40;;;21.10;99.90;;;;;;5036119;28;20466;-56
2023/09/03 09:37:47;;;;;;;16.30;8.90;;;21.10;99.90;;;;;;5035758;28;20445;-54
2023/09/03 09:40:14;;;;;;;18.05;8.45;;;21.10;99.90;;;;;;5035747;28;20029;-54
2023/09/03 09:43:01;;;;;;;15.02;8.98;;;21.20;99.90;;;;;;5018028;28;20044;-55
2023/09/03 09:45:27;;;;;;;13.05;8.63;;;21.30;99.90;;;;;;5035742;28;20485;-53
2023/09/03 09:48:09;;;;;;;14.77;8.10;;;21.20;99.90;;;;;;5036272;28;20041;-54
2023/09/03 09:50:38;;;;;;;13.85;8.77;;;21.20;99.90;;;;;;5017959;28;20035;-55
2023/09/03 09:53:05;;;;;;;13.07;7.35;;;21.20;99.90;;;;;;5035283;28;20398;-56
2023/09/03 09:55:33;;;;;;;11.07;6.57;;;21.30;99.90;;;;;;5035294;28;20029;-54
2023/09/03 09:58:00;;;;;;;11.93;8.23;;;21.40;99.90;;;;;;5034544;28;20034;-55
2023/09/03 10:00:37;;;;;;;12.15;7.20;;;21.60;99.90;;;;;;5035535;28;20099;-55
2023/09/03 10:03:05;;;;;;;13.25;7.90;;;21.50;99.90;;;;;;5035122;28;20037;-55
2023/09/03 10:05:30;;;;;;;12.57;7.43;;;21.60;99.90;;;;;;5035836;28;20099;-56
2023/09/03 10:07:57;;;;;;;13.98;6.80;;;21.60;99.90;;;;;;5035372;28;20029;-55
2023/09/03 10:10:22;;;;;;;11.27;6.53;;;21.70;99.90;;;;;;5035592;28;20359;-55
2023/09/03 10:12:48;;;;;;;9.82;6.10;;;21.80;99.90;;;;;;5034914;28;20040;-54
2023/09/03 10:15:14;;;;;;;13.55;7.65;;;21.90;99.90;;;;;;5035831;28;20029;-54
2023/09/03 10:17:41;;;;;;;11.55;6.57;;;22.00;99.90;;;;;;5035360;28;20041;-56
2023/09/03 10:20:14;;;;;;;11.55;7.50;;;22.10;99.90;;;;;;5035209;28;20037;-54
2023/09/03 10:22:41;;;;;;;13.98;7.10;;;22.10;99.90;;;;;;5035431;28;20030;-56
2023/09/03 10:25:12;;;;;;;13.15;7.25;;;22.10;99.90;;;;;;5035342;28;20036;-56
2023/09/03 10:27:43;;;;;;;8.18;5.38;;;22.40;99.90;;;;;;5035322;28;20025;-54
2023/09/03 10:30:13;;;;;;;11.38;6.10;;;22.40;99.90;;;;;;5033964;28;20037;-51
2023/09/03 10:32:41;;;;;;;8.63;5.43;;;22.50;99.90;;;;;;5033740;28;20371;-49
2023/09/03 10:35:11;;;;;;;8.57;5.35;;;22.50;99.90;;;;;;5017808;28;20536;-52
2023/09/03 10:37:38;;;;;;;7.50;5.10;;;22.60;99.90;;;;;;5033859;28;20045;-54
2023/09/03 10:40:23;;;;;;;9.30;5.63;;;22.60;99.90;;;;;;5035067;28;20064;-55
2023/09/03 10:42:52;;;;;;;7.50;4.95;;;22.70;99.90;;;;;;5035275;28;20036;-51
2023/09/03 10:45:19;;;;;;;7.35;3.95;;;22.80;99.90;;;;;;5034953;28;20053;-52
2023/09/03 10:48:00;;;;;;;5.93;3.53;;;23.00;99.90;;;;;;5034766;28;20125;-52
2023/09/03 10:50:43;;;;;;;6.15;3.85;;;23.00;99.90;;;;;;5038503;28;20047;-56
2023/09/03 10:53:29;;;;;;;5.68;2.80;;;23.10;99.90;;;;;;5039378;28;20068;-52
2023/09/03 10:56:14;;;;;;;6.25;3.85;;;23.10;99.90;;;;;;5038281;28;20120;-53
2023/09/03 10:58:59;;;;;;;7.18;3.78;;;23.10;99.90;;;;;;5039003;28;20493;-54
2023/09/03 11:01:30;;;;;;;5.28;2.53;;;23.00;99.90;;;;;;5038737;28;20025;-56
2023/09/03 11:03:57;;;;;;;3.35;2.22;;;23.00;99.90;;;;;;5038614;28;20030;-55
2023/09/03 11:06:24;;;;;;;3.72;2.25;;;22.90;99.90;;;;;;5037086;28;20026;-55
2023/09/03 11:09:10;;;;;;;5.93;2.72;;;22.90;99.90;;;;;;5021132;28;20096;-56
2023/09/03 11:11:38;;;;;;;5.78;2.85;;;22.80;99.90;;;;;;5007940;28;20037;-53
2023/09/03 11:14:06;;;;;;;6.15;2.60;;;22.80;99.90;;;;;;5038621;28;20442;-55
2023/09/03 11:16:34;;;;;;;6.97;3.80;;;22.80;99.90;;;;;;5037859;28;20027;-52
2023/09/03 11:19:03;;;;;;;5.23;3.27;;;22.90;99.90;;;;;;5037688;28;20044;-52
2023/09/03 11:21:29;;;;;;;5.82;3.80;;;22.80;99.90;;;;;;5038250;28;20029;-53
2023/09/03 11:24:16;;;;;;;5.70;3.63;;;22.90;99.90;;;;;;5037491;28;20116;-54
2023/09/03 11:26:42;;;;;;;7.43;3.83;;;23.00;99.90;;;;;;5036718;28;20029;-55
2023/09/03 11:29:25;;;;;;;5.90;3.65;;;23.10;99.90;;;;;;5037621;28;20044;-52
2023/09/03 11:31:51;;;;;;;6.43;4.28;;;23.20;99.90;;;;;;5039496;28;20040;-52
2023/09/03 11:34:19;;;;;;;5.13;2.90;;;23.20;99.90;;;;;;5021314;28;20504;-51
2023/09/03 11:36:45;;;;;;;5.93;3.75;;;23.10;99.90;;;;;;5039189;28;20339;-49
2023/09/03 11:39:15;;;;;;;6.55;3.60;;;23.20;99.90;;;;;;5038935;28;20071;-55
2023/09/03 11:41:44;;;;;;;5.57;3.75;;;23.20;99.90;;;;;;5039529;28;20112;-50
2023/09/03 11:44:19;;;;;;;5.38;3.40;;;23.30;99.90;;;;;;5039814;28;20386;-51
2023/09/03 11:47:03;;;;;;;6.10;3.67;;;23.20;99.90;;;;;;5039381;28;20033;-51
2023/09/03 11:49:29;;;;;;;5.70;3.30;;;23.20;99.90;;;;;;5039377;28;20099;-52
2023/09/03 11:52:15;;;;;;;4.85;2.63;;;23.10;99.90;;;;;;5040048;28;20034;-49
2023/09/03 11:54:42;;;;;;;4.18;2.50;;;23.10;99.90;;;;;;5038712;28;20537;-53
2023/09/03 11:57:11;;;;;;;5.22;2.88;;;23.00;99.90;;;;;;5039800;28;20030;-52
2023/09/03 11:59:37;;;;;;;5.13;2.58;;;23.00;99.90;;;;;;5039844;28;20055;-51
2023/09/03 12:02:03;;;;;;;3.42;2.35;;;23.00;99.90;;;;;;5040085;28;20059;-51
2023/09/03 12:04:31;;;;;;;3.80;2.25;;;23.00;99.90;;;;;;5020619;28;20494;-52
2023/09/03 12:06:58;;;;;;;3.45;2.08;;;23.00;99.50;;;;;;5020309;28;20044;-53
2023/09/03 12:09:24;;;;;;;4.10;2.10;;;23.00;99.90;;;;;;5037352;28;20040;-52
2023/09/03 12:11:50;;;;;;;3.63;1.95;;;22.90;99.80;;;;;;5037904;28;20029;-54
2023/09/03 12:14:29;;;;;;;3.67;1.70;;;22.90;99.90;;;;;;5037512;28;20075;-55
2023/09/03 12:16:55;;;;;;;3.88;1.83;;;23.00;99.90;;;;;;5037732;28;20041;-51
2023/09/03 12:19:20;;;;;;;3.83;2.20;;;23.00;99.70;;;;;;5037537;28;20511;-55
2023/09/03 12:21:54;;;;;;;4.45;1.90;;;23.00;99.80;;;;;;5037989;28;20030;-53
2023/09/03 12:24:27;;;;;;;2.67;1.75;;;23.00;99.70;;;;;;5037408;28;20053;-54
2023/09/03 12:27:03;;;;;;;2.85;1.85;;;23.10;99.90;;;;;;5037224;28;20029;-53
2023/09/03 12:29:34;;;;;;;4.30;1.75;;;23.10;99.20;;;;;;5037335;28;20029;-55
2023/09/03 12:32:00;;;;;;;6.20;2.15;;;23.10;98.90;;;;;;5037988;28;20029;-55
2023/09/03 12:34:36;;;;;;;3.25;1.70;;;23.20;98.30;;;;;;5037290;28;20030;-53
2023/09/03 12:37:03;;;;;;;3.13;1.65;;;23.10;99.30;;;;;;5037444;28;20038;-53